createdAt,value
2019-03-05T00:00:06.885Z,2.00
2019-03-05T00:02:54.158Z,3.10
2019-03-05T00:05:41.403Z,3.10
2019-03-05T00:08:28.788Z,1.90
2019-03-05T00:11:15.811Z,1.82
2019-03-05T00:14:02.296Z,2.05
2019-03-05T00:16:48.826Z,2.90
2019-03-05T00:19:36.183Z,2.30
2019-03-05T00:22:22.801Z,2.60
2019-03-05T00:25:07.584Z,2.20
2019-03-05T00:49:37.908Z,2.25
2019-03-05T02:59:18.498Z,1.37
2019-03-05T03:14:40.979Z,1.72
2019-03-05T03:17:29.089Z,1.77
2019-03-05T04:28:16.557Z,1.75
2019-03-05T07:09:29.084Z,3.50
2019-03-05T07:12:28.093Z,4.00
2019-03-05T07:15:29.945Z,3.50
2019-03-05T07:19:25.076Z,3.45
2019-03-05T07:21:17.436Z,3.50
2019-03-05T08:10:20.665Z,3.60
2019-03-05T08:25:25.472Z,3.65
2019-03-05T08:28:13.525Z,3.75
2019-03-05T08:31:01.672Z,4.25
2019-03-05T09:54:21.229Z,3.20
2019-03-05T09:57:08.358Z,3.40
2019-03-05T09:59:55.779Z,3.30
2019-03-05T10:02:42.231Z,2.60
2019-03-05T10:05:12.028Z,2.65
2019-03-05T10:07:59.190Z,2.95
2019-03-05T11:40:20.740Z,2.33
2019-03-05T11:43:10.706Z,1.98
2019-03-05T11:45:59.473Z,1.92
2019-03-05T12:10:05.630Z,1.65
2019-03-05T12:12:53.768Z,0.95
2019-03-05T12:15:22.881Z,1.20
2019-03-05T12:18:10.993Z,1.42
2019-03-05T12:30:11.584Z,1.42
2019-03-05T12:32:59.689Z,1.55
2019-03-05T13:00:17.342Z,1.10
2019-03-05T13:03:05.516Z,2.08
2019-03-05T13:15:05.838Z,0.98
2019-03-05T13:17:34.944Z,1.40
2019-03-05T13:20:26.187Z,1.37
2019-03-05T13:22:54.120Z,1.05
2019-03-05T13:25:42.248Z,1.10
2019-03-05T13:34:21.738Z,1.20
2019-03-05T13:37:09.846Z,1.15
2019-03-05T14:13:35.488Z,1.20
2019-03-05T14:16:23.980Z,1.90
2019-03-05T14:19:10.569Z,1.70
2019-03-05T14:21:39.776Z,1.25
2019-03-05T14:24:28.561Z,1.85
2019-03-05T14:27:15.732Z,0.93
2019-03-05T14:30:03.222Z,1.25
2019-03-05T14:32:50.369Z,1.22
2019-03-05T14:35:37.350Z,1.22
2019-03-05T14:38:06.454Z,1.35
2019-03-05T14:40:54.813Z,0.90
2019-03-05T16:53:22.142Z,1.35
2019-03-05T16:56:15.933Z,1.45
2019-03-05T16:59:20.090Z,1.30
2019-03-05T17:23:27.138Z,1.50
2019-03-05T17:29:03.486Z,1.57
2019-03-05T17:31:50.371Z,1.95
2019-03-05T17:34:36.806Z,1.80
2019-03-05T17:37:23.288Z,1.45
2019-03-05T17:40:10.308Z,1.52
2019-03-05T17:42:55.169Z,1.90
2019-03-05T19:21:24.057Z,2.90
2019-03-05T23:09:10.771Z,4.42
2019-03-05T23:11:58.369Z,3.87
2019-03-05T23:14:44.863Z,4.10
2019-03-05T23:17:31.769Z,4.35
2019-03-05T23:20:18.214Z,4.33
2019-03-05T23:23:05.743Z,4.33
2019-03-05T23:25:52.224Z,4.28
2019-03-05T23:28:39.705Z,4.65
2019-03-05T23:31:26.096Z,4.95
2019-03-05T23:34:18.233Z,4.83
2019-03-05T23:36:59.966Z,5.17
